Time;durP1;ratioP1;P1;durP2;ratioP2;P2;SDS_P1;SDS_P2;PMS_P1;PMS_P2;Temp;Humidity;BMP_temperature;BMP_pressure;BME280_temperature;BME280_humidity;BME280_pressure;Samples;Min_cycle;Max_cycle;Signal;HPM_P1;HPM_P2
2023/03/21 00:01:52;;;;;;;10.05;4.53;;;;;;;;;;10426765;28;20099;-47
2023/03/21 00:06:53;;;;;;;9.38;4.13;;;;;;;;;;10440425;28;20034;-48
2023/03/21 00:11:53;;;;;;;6.57;4.07;;;;;;;;;;10400240;28;20033;-48
2023/03/21 00:16:54;;;;;;;11.82;4.30;;;;;;;;;;10432695;28;20492;-51
2023/03/21 00:21:55;;;;;;;9.32;4.45;;;;;;;;;;10426357;28;20080;-47
2023/03/21 00:26:55;;;;;;;12.38;4.32;;;;;;;;;;10442477;28;20037;-49
2023/03/21 00:31:56;;;;;;;9.65;4.03;;;;;;;;;;10435351;28;20036;-49
2023/03/21 00:36:57;;;;;;;8.10;4.00;;;;;;;;;;10436638;28;20384;-48
2023/03/21 00:41:57;;;;;;;10.52;4.40;;;;;;;;;;10437233;28;20025;-48
2023/03/21 00:47:01;;;;;;;8.02;4.13;;;;;;;;;;10437485;28;20480;-48
2023/03/21 00:52:05;;;;;;;6.95;3.83;;;;;;;;;;10448297;28;20480;-48
2023/03/21 00:57:06;;;;;;;8.75;4.03;;;;;;;;;;10431947;28;20088;-49
2023/03/21 01:02:06;;;;;;;9.05;4.25;;;;;;;;;;10429367;28;20056;-49
2023/03/21 01:07:07;;;;;;;11.35;4.72;;;;;;;;;;10449974;28;20472;-55
2023/03/21 01:12:09;;;;;;;7.15;4.07;;;;;;;;;;10449345;28;20036;-47
2023/03/21 01:17:10;;;;;;;6.68;3.83;;;;;;;;;;10436431;28;20028;-47
2023/03/21 01:22:11;;;;;;;9.13;4.07;;;;;;;;;;10434280;28;20036;-47
2023/03/21 01:27:11;;;;;;;9.80;3.88;;;;;;;;;;10419816;28;20064;-49
2023/03/21 01:32:12;;;;;;;8.15;3.67;;;;;;;;;;10429818;28;20045;-47
2023/03/21 01:37:13;;;;;;;7.13;4.25;;;;;;;;;;10445072;28;20033;-47
2023/03/21 01:42:14;;;;;;;10.63;3.65;;;;;;;;;;10426326;28;20022;-48
2023/03/21 01:47:14;;;;;;;6.85;3.80;;;;;;;;;;10446445;28;20029;-67
2023/03/21 01:52:29;;;;;;;9.05;4.07;;;;;;;;;;10438052;28;20025;-47
2023/03/21 01:57:38;;;;;;;5.97;3.75;;;;;;;;;;10436096;28;20025;-47
2023/03/21 02:02:49;;;;;;;9.02;4.03;;;;;;;;;;10418137;28;20064;-51
2023/03/21 02:07:51;;;;;;;7.35;3.67;;;;;;;;;;10456865;28;20025;-48
2023/03/21 02:12:54;;;;;;;7.65;4.05;;;;;;;;;;10432341;28;20060;-48
2023/03/21 02:18:05;;;;;;;7.40;3.95;;;;;;;;;;10437063;28;20376;-48
2023/03/21 02:23:44;;;;;;;5.47;3.70;;;;;;;;;;10444850;28;20439;-47
2023/03/21 02:29:01;;;;;;;8.55;4.70;;;;;;;;;;10445132;28;20472;-48
2023/03/21 02:34:31;;;;;;;4.80;3.42;;;;;;;;;;10429155;28;20029;-48
2023/03/21 02:39:56;;;;;;;7.93;3.53;;;;;;;;;;10425353;28;20025;-49
2023/03/21 02:45:06;;;;;;;5.63;3.55;;;;;;;;;;10444857;28;20029;-48
2023/03/21 02:50:25;;;;;;;3.97;3.38;;;;;;;;;;10450388;28;20345;-48
2023/03/21 02:55:30;;;;;;;6.85;3.72;;;;;;;;;;10438492;28;20547;-49
2023/03/21 03:00:33;;;;;;;4.45;3.20;;;;;;;;;;10459304;28;20469;-48
2023/03/21 03:05:40;;;;;;;6.75;4.03;;;;;;;;;;10439242;28;20025;-48
2023/03/21 03:10:56;;;;;;;7.55;3.45;;;;;;;;;;10430580;28;20480;-49
2023/03/21 03:16:29;;;;;;;5.97;3.75;;;;;;;;;;10443527;28;20033;-48
2023/03/21 03:21:41;;;;;;;7.20;4.40;;;;;;;;;;10445300;28;20025;-49
2023/03/21 03:27:05;;;;;;;6.80;3.67;;;;;;;;;;10430941;28;20024;-49
2023/03/21 03:32:16;;;;;;;5.80;3.83;;;;;;;;;;10416747;28;20063;-49
2023/03/21 03:37:25;;;;;;;4.53;3.28;;;;;;;;;;10432012;28;20033;-49
2023/03/21 03:42:48;;;;;;;4.80;3.60;;;;;;;;;;10420565;28;20033;-57
2023/03/21 03:48:00;;;;;;;4.78;3.40;;;;;;;;;;10443888;28;20164;-48
2023/03/21 03:53:19;;;;;;;5.32;3.28;;;;;;;;;;10434643;28;20029;-47
2023/03/21 03:58:22;;;;;;;4.00;3.38;;;;;;;;;;10443100;28;20021;-48
2023/03/21 04:03:23;;;;;;;7.60;3.85;;;;;;;;;;10450690;28;20032;-51
2023/03/21 04:08:24;;;;;;;5.10;3.45;;;;;;;;;;10437676;28;20036;-48
2023/03/21 04:13:24;;;;;;;4.30;3.42;;;;;;;;;;10442182;28;20347;-51
2023/03/21 04:18:25;;;;;;;6.55;3.35;;;;;;;;;;10450087;28;20033;-48
2023/03/21 04:23:28;;;;;;;6.72;3.53;;;;;;;;;;10448591;28;20037;-49
2023/03/21 04:28:28;;;;;;;5.53;3.88;;;;;;;;;;10437821;28;20078;-51
2023/03/21 04:33:29;;;;;;;3.90;3.47;;;;;;;;;;10434407;28;20558;-48
2023/03/21 04:38:29;;;;;;;6.35;3.75;;;;;;;;;;10444949;28;20464;-52
2023/03/21 04:43:30;;;;;;;6.55;3.42;;;;;;;;;;10432989;28;20060;-48
2023/03/21 04:48:31;;;;;;;5.90;3.83;;;;;;;;;;10430643;28;20112;-49
2023/03/21 04:53:32;;;;;;;7.43;3.70;;;;;;;;;;10448836;28;20036;-49
2023/03/21 04:58:32;;;;;;;6.32;3.53;;;;;;;;;;10442196;28;20528;-48
2023/03/21 05:03:38;;;;;;;6.55;3.35;;;;;;;;;;10441252;28;20488;-48
2023/03/21 05:08:40;;;;;;;6.43;3.83;;;;;;;;;;10443232;28;20041;-49
2023/03/21 05:13:40;;;;;;;4.60;3.45;;;;;;;;;;10440452;28;20080;-49
2023/03/21 05:18:41;;;;;;;4.40;3.55;;;;;;;;;;10434579;28;20045;-55
2023/03/21 05:23:42;;;;;;;5.88;3.53;;;;;;;;;;10447311;28;20029;-48
2023/03/21 05:28:43;;;;;;;6.47;3.30;;;;;;;;;;10434412;28;20033;-48
2023/03/21 05:33:44;;;;;;;5.72;3.88;;;;;;;;;;10423746;28;20028;-48
2023/03/21 05:38:45;;;;;;;5.38;3.65;;;;;;;;;;10424184;28;20369;-49
2023/03/21 05:43:46;;;;;;;3.35;3.05;;;;;;;;;;10445646;28;20021;-47
2023/03/21 05:48:46;;;;;;;6.22;3.40;;;;;;;;;;10441462;28;20017;-48
2023/03/21 05:53:47;;;;;;;5.28;3.53;;;;;;;;;;10427621;28;20033;-47
2023/03/21 05:58:48;;;;;;;3.58;3.28;;;;;;;;;;10433428;28;20053;-47
2023/03/21 06:03:48;;;;;;;3.55;3.10;;;;;;;;;;10435493;28;20028;-48
2023/03/21 06:08:49;;;;;;;4.45;3.53;;;;;;;;;;10433694;28;20033;-47
2023/03/21 06:13:50;;;;;;;5.25;3.78;;;;;;;;;;10422971;28;20184;-48
2023/03/21 06:18:50;;;;;;;6.18;4.00;;;;;;;;;;10427899;28;20059;-48
2023/03/21 06:23:51;;;;;;;4.63;3.60;;;;;;;;;;10444797;28;20021;-47
2023/03/21 06:28:52;;;;;;;5.22;3.20;;;;;;;;;;10437033;28;20025;-48
2023/03/21 06:33:54;;;;;;;5.47;3.65;;;;;;;;;;10436404;28;20025;-48
2023/03/21 06:38:55;;;;;;;16.90;5.57;;;;;;;;;;10430630;28;20036;-48
2023/03/21 06:43:56;;;;;;;12.88;4.65;;;;;;;;;;10422263;28;20025;-48
2023/03/21 06:48:56;;;;;;;7.53;5.10;;;;;;;;;;10437553;28;20029;-49
2023/03/21 06:53:57;;;;;;;8.13;5.47;;;;;;;;;;10428325;28;20055;-48
2023/03/21 06:58:57;;;;;;;8.23;5.57;;;;;;;;;;10423766;28;20048;-58
2023/03/21 07:03:58;;;;;;;9.93;6.20;;;;;;;;;;10433554;28;20037;-49
2023/03/21 07:08:59;;;;;;;16.38;6.65;;;;;;;;;;10429407;28;20103;-65
2023/03/21 07:14:00;;;;;;;15.95;6.53;;;;;;;;;;10426242;28;20036;-50
2023/03/21 07:19:00;;;;;;;11.75;6.60;;;;;;;;;;10432422;28;20036;-51
2023/03/21 07:24:01;;;;;;;17.75;7.60;;;;;;;;;;10438230;28;20017;-49
2023/03/21 07:29:02;;;;;;;15.02;7.18;;;;;;;;;;10443541;28;20116;-48
2023/03/21 07:34:02;;;;;;;15.10;7.53;;;;;;;;;;10419083;28;20088;-51
2023/03/21 07:39:03;;;;;;;13.05;7.85;;;;;;;;;;10439780;28;20076;-50
2023/03/21 07:44:04;;;;;;;19.45;7.13;;;;;;;;;;10430668;28;20059;-48
2023/03/21 07:49:05;;;;;;;17.30;6.55;;;;;;;;;;10432032;28;20025;-50
2023/03/21 07:54:05;;;;;;;15.07;6.50;;;;;;;;;;10438837;28;20029;-53
2023/03/21 07:59:07;;;;;;;16.63;6.93;;;;;;;;;;10437767;28;20041;-51
2023/03/21 08:04:07;;;;;;;12.18;7.13;;;;;;;;;;10450583;28;20032;-49
2023/03/21 08:09:08;;;;;;;13.30;6.57;;;;;;;;;;10438108;28;20485;-48
2023/03/21 08:14:08;;;;;;;13.13;6.57;;;;;;;;;;10437507;28;20369;-49
2023/03/21 08:19:09;;;;;;;15.13;7.30;;;;;;;;;;10449460;28;20219;-49
2023/03/21 08:24:10;;;;;;;16.15;6.35;;;;;;;;;;10435693;28;20136;-55
2023/03/21 08:29:12;;;;;;;14.48;7.00;;;;;;;;;;10436560;28;20028;-53
2023/03/21 08:34:12;;;;;;;13.10;6.10;;;;;;;;;;10436779;28;20113;-53
2023/03/21 08:39:13;;;;;;;9.77;6.57;;;;;;;;;;10449539;28;20021;-48
2023/03/21 08:44:15;;;;;;;15.38;7.60;;;;;;;;;;10435558;28;20051;-50
2023/03/21 08:49:16;;;;;;;8.85;6.07;;;;;;;;;;10443610;28;20100;-55
2023/03/21 08:54:20;;;;;;;19.63;7.13;;;;;;;;;;10432090;28;20518;-48
2023/03/21 08:59:20;;;;;;;10.32;6.47;;;;;;;;;;10443457;28;20044;-50
2023/03/21 09:04:24;;;;;;;9.57;6.40;;;;;;;;;;10440762;28;20028;-49
2023/03/21 09:09:25;;;;;;;10.98;6.30;;;;;;;;;;10443037;28;20039;-49
2023/03/21 09:14:25;;;;;;;9.40;6.93;;;;;;;;;;10447423;28;20393;-51
2023/03/21 09:19:27;;;;;;;9.85;6.30;;;;;;;;;;10442154;28;20384;-50
2023/03/21 09:24:27;;;;;;;12.27;6.53;;;;;;;;;;10440354;28;20451;-55
2023/03/21 09:29:31;;;;;;;13.07;6.13;;;;;;;;;;10433751;28;20017;-52
2023/03/21 09:34:32;;;;;;;9.90;6.47;;;;;;;;;;10431020;28;20477;-52
2023/03/21 09:39:32;;;;;;;10.07;6.53;;;;;;;;;;10426672;28;20036;-55
2023/03/21 09:44:39;;;;;;;9.20;6.10;;;;;;;;;;10446620;28;20104;-55
2023/03/21 09:49:48;;;;;;;7.93;6.10;;;;;;;;;;10435903;28;20037;-55
2023/03/21 09:54:48;;;;;;;8.40;6.00;;;;;;;;;;10439559;28;20465;-52
2023/03/21 09:59:52;;;;;;;8.20;6.30;;;;;;;;;;10446039;28;20049;-52
2023/03/21 10:04:54;;;;;;;9.90;6.72;;;;;;;;;;10433455;28;20381;-50
2023/03/21 10:09:57;;;;;;;7.97;5.75;;;;;;;;;;10428085;28;20036;-48
2023/03/21 10:15:00;;;;;;;9.23;6.60;;;;;;;;;;10435617;28;20121;-55
2023/03/21 10:20:24;;;;;;;15.20;6.60;;;;;;;;;;10421429;28;20037;-55
2023/03/21 10:25:50;;;;;;;7.88;6.35;;;;;;;;;;10445206;28;20108;-52
2023/03/21 10:30:59;;;;;;;9.32;6.30;;;;;;;;;;10442354;28;20104;-53
2023/03/21 10:36:07;;;;;;;7.55;6.20;;;;;;;;;;10438025;28;20108;-50
2023/03/21 10:41:10;;;;;;;7.37;6.33;;;;;;;;;;10459511;28;20427;-48
2023/03/21 10:46:19;;;;;;;8.60;6.30;;;;;;;;;;10444951;28;20025;-53
2023/03/21 10:51:26;;;;;;;8.25;5.72;;;;;;;;;;10437019;28;20500;-49
2023/03/21 10:56:30;;;;;;;7.22;6.00;;;;;;;;;;10445052;28;20025;-49
2023/03/21 11:01:41;;;;;;;7.28;5.53;;;;;;;;;;10459549;28;20072;-51
2023/03/21 11:06:56;;;;;;;8.45;5.75;;;;;;;;;;10463110;28;20083;-49
2023/03/21 11:12:26;;;;;;;6.72;5.10;;;;;;;;;;10452407;28;20025;-49
2023/03/21 11:17:31;;;;;;;7.80;5.15;;;;;;;;;;10434521;28;20033;-52
2023/03/21 11:22:42;;;;;;;11.23;5.88;;;;;;;;;;10441578;28;20114;-48
2023/03/21 11:27:49;;;;;;;6.68;5.70;;;;;;;;;;10467768;28;20028;-48
2023/03/21 11:33:00;;;;;;;7.38;5.07;;;;;;;;;;10454671;28;20043;-49
2023/03/21 11:38:02;;;;;;;6.57;5.28;;;;;;;;;;10466787;28;20033;-48
2023/03/21 11:43:36;;;;;;;6.30;5.47;;;;;;;;;;10446207;28;20053;-48
2023/03/21 11:48:43;;;;;;;6.53;5.28;;;;;;;;;;10423810;28;20039;-49
2023/03/21 11:54:34;;;;;;;6.72;5.72;;;;;;;;;;10447272;28;20488;-50
2023/03/21 12:00:14;;;;;;;5.90;5.13;;;;;;;;;;10442201;28;20463;-47
2023/03/21 12:05:30;;;;;;;8.27;5.28;;;;;;;;;;10437496;28;20024;-47
2023/03/21 12:10:51;;;;;;;6.60;4.95;;;;;;;;;;10438202;28;20472;-48
2023/03/21 12:16:23;;;;;;;6.47;5.57;;;;;;;;;;10428548;28;20538;-48
2023/03/21 12:22:01;;;;;;;6.28;5.18;;;;;;;;;;10449564;28;20083;-48
2023/03/21 12:27:11;;;;;;;5.15;4.65;;;;;;;;;;10450464;28;21681;-50
2023/03/21 12:32:22;;;;;;;6.60;5.60;;;;;;;;;;10421007;28;20060;-50
2023/03/21 12:37:32;;;;;;;6.57;4.85;;;;;;;;;;10438730;28;20056;-52
2023/03/21 12:43:27;;;;;;;8.70;5.55;;;;;;;;;;10432608;28;20044;-48
2023/03/21 12:48:43;;;;;;;6.15;4.72;;;;;;;;;;10400436;28;20037;-48
2023/03/21 12:54:36;;;;;;;7.18;4.60;;;;;;;;;;10437723;28;20355;-53
2023/03/21 12:59:42;;;;;;;7.53;4.85;;;;;;;;;;10425663;28;20037;-50
2023/03/21 13:05:11;;;;;;;5.57;5.07;;;;;;;;;;10440738;28;20029;-49
2023/03/21 13:10:22;;;;;;;5.47;4.97;;;;;;;;;;10441741;28;20419;-54
2023/03/21 13:15:34;;;;;;;5.82;5.00;;;;;;;;;;10446063;28;20100;-50
2023/03/21 13:20:49;;;;;;;6.22;5.22;;;;;;;;;;10437085;28;20594;-47
2023/03/21 13:25:54;;;;;;;7.40;5.45;;;;;;;;;;10434266;28;20091;-52
2023/03/21 13:31:19;;;;;;;6.78;5.40;;;;;;;;;;10433520;28;20037;-50
2023/03/21 13:36:27;;;;;;;8.98;6.00;;;;;;;;;;10434371;28;20032;-51
2023/03/21 13:41:34;;;;;;;12.97;5.63;;;;;;;;;;10440482;28;20025;-52
2023/03/21 13:46:58;;;;;;;9.23;5.32;;;;;;;;;;10429482;28;20439;-50
2023/03/21 13:52:09;;;;;;;8.20;5.40;;;;;;;;;;10418164;28;20376;-50
2023/03/21 13:57:37;;;;;;;7.88;5.63;;;;;;;;;;10441716;28;20109;-48
2023/03/21 14:02:54;;;;;;;7.90;5.60;;;;;;;;;;10435505;28;20102;-52
2023/03/21 14:08:07;;;;;;;5.88;5.20;;;;;;;;;;10434716;28;20125;-50
2023/03/21 14:13:15;;;;;;;8.60;5.38;;;;;;;;;;10445082;28;20037;-49
2023/03/21 14:18:20;;;;;;;7.72;6.07;;;;;;;;;;10445753;28;20488;-49
2023/03/21 14:23:21;;;;;;;7.82;5.05;;;;;;;;;;10430283;28;20036;-48
2023/03/21 14:28:31;;;;;;;10.73;5.75;;;;;;;;;;10446333;28;20037;-53
2023/03/21 14:33:38;;;;;;;7.72;5.30;;;;;;;;;;10423279;28;20591;-54
2023/03/21 14:38:39;;;;;;;6.05;4.60;;;;;;;;;;10443812;28;20033;-47
2023/03/21 14:43:40;;;;;;;7.93;5.47;;;;;;;;;;10431279;28;20036;-53
2023/03/21 14:48:41;;;;;;;6.15;4.72;;;;;;;;;;10426599;28;20354;-51
2023/03/21 14:53:42;;;;;;;6.97;5.40;;;;;;;;;;10434630;28;20385;-50
2023/03/21 14:58:45;;;;;;;8.05;4.82;;;;;;;;;;10432210;28;20504;-49
2023/03/21 15:03:50;;;;;;;6.40;4.93;;;;;;;;;;10428276;28;20048;-51
2023/03/21 15:09:02;;;;;;;8.35;4.68;;;;;;;;;;10415707;28;20036;-54
2023/03/21 15:14:11;;;;;;;9.07;4.90;;;;;;;;;;10431701;28;20057;-60
2023/03/21 15:19:22;;;;;;;6.32;4.72;;;;;;;;;;10459008;28;20036;-48
2023/03/21 15:24:31;;;;;;;5.35;4.88;;;;;;;;;;10444208;28;20060;-53
2023/03/21 15:29:35;;;;;;;8.10;4.75;;;;;;;;;;10450523;28;20068;-60
2023/03/21 15:34:36;;;;;;;6.43;4.47;;;;;;;;;;10427327;28;20032;-63
2023/03/21 15:39:36;;;;;;;5.85;4.60;;;;;;;;;;10443450;28;20021;-48
2023/03/21 15:44:44;;;;;;;4.93;3.85;;;;;;;;;;10443667;28;20017;-61
2023/03/21 15:49:54;;;;;;;4.97;4.47;;;;;;;;;;10406779;28;20112;-48
2023/03/21 15:54:55;;;;;;;4.95;4.43;;;;;;;;;;10443489;28;20483;-61
2023/03/21 16:00:10;;;;;;;6.05;4.38;;;;;;;;;;10437220;28;20037;-52
2023/03/21 16:05:29;;;;;;;5.13;4.47;;;;;;;;;;10425427;28;20059;-50
2023/03/21 16:10:36;;;;;;;;;;;;;;;;;;10437764;28;20044;-50
2023/03/21 16:15:37;;;;;;;5.03;4.10;;;;;;;;;;10441372;28;20291;-48
2023/03/21 16:20:44;;;;;;;5.75;4.50;;;;;;;;;;10438730;28;20483;-60
2023/03/21 16:25:45;;;;;;;5.53;4.40;;;;;;;;;;10435364;28;20148;-49
2023/03/21 16:30:46;;;;;;;5.47;4.32;;;;;;;;;;10436828;28;20040;-52
2023/03/21 16:35:47;;;;;;;4.57;3.85;;;;;;;;;;10438938;28;20023;-51
2023/03/21 16:40:47;;;;;;;5.32;3.80;;;;;;;;;;10441635;28;20497;-48
2023/03/21 16:45:48;;;;;;;4.82;4.40;;;;;;;;;;10433918;28;20029;-48
2023/03/21 16:50:49;;;;;;;5.43;4.18;;;;;;;;;;10436397;28;20021;-63
2023/03/21 16:55:50;;;;;;;3.45;3.15;;;;;;;;;;10441934;28;20448;-50
2023/03/21 17:00:50;;;;;;;4.38;3.67;;;;;;;;;;10431038;28;20045;-52
2023/03/21 17:05:51;;;;;;;4.80;4.22;;;;;;;;;;10437531;28;20029;-49
2023/03/21 17:10:51;;;;;;;4.53;3.80;;;;;;;;;;10417721;28;20036;-48
2023/03/21 17:15:52;;;;;;;6.32;3.55;;;;;;;;;;10440187;28;20037;-50
2023/03/21 17:20:53;;;;;;;4.07;3.50;;;;;;;;;;10447567;28;20056;-48
2023/03/21 17:25:54;;;;;;;5.07;4.13;;;;;;;;;;10447875;28;20037;-65
2023/03/21 17:30:54;;;;;;;4.85;3.72;;;;;;;;;;10446495;28;20044;-50
2023/03/21 17:35:55;;;;;;;4.88;3.50;;;;;;;;;;10420439;28;20029;-54
2023/03/21 17:40:57;;;;;;;7.82;4.05;;;;;;;;;;10426240;28;20091;-50
2023/03/21 17:45:58;;;;;;;4.03;3.60;;;;;;;;;;10427424;28;20032;-53
2023/03/21 17:50:58;;;;;;;5.13;3.72;;;;;;;;;;10433413;28;20033;-52
2023/03/21 17:55:59;;;;;;;12.00;4.78;;;;;;;;;;10433196;28;20028;-48
2023/03/21 18:01:00;;;;;;;10.13;5.50;;;;;;;;;;10437872;28;20542;-48
2023/03/21 18:06:00;;;;;;;13.10;6.75;;;;;;;;;;10424753;28;20025;-48
2023/03/21 18:11:01;;;;;;;10.45;6.70;;;;;;;;;;10444875;28;20056;-48
2023/03/21 18:16:01;;;;;;;12.75;6.72;;;;;;;;;;10441285;28;20025;-61
2023/03/21 18:21:02;;;;;;;18.67;7.18;;;;;;;;;;10407300;28;20041;-61
2023/03/21 18:26:03;;;;;;;14.95;7.22;;;;;;;;;;10364594;28;20038;-59
2023/03/21 18:31:07;;;;;;;22.70;10.25;;;;;;;;;;10364590;28;20029;-48
2023/03/21 18:36:10;;;;;;;23.92;10.60;;;;;;;;;;10363599;28;20070;-49
2023/03/21 18:41:11;;;;;;;25.17;10.35;;;;;;;;;;10365170;28;20030;-49
2023/03/21 18:46:12;;;;;;;25.50;10.57;;;;;;;;;;10362290;28;20026;-52
2023/03/21 18:51:14;;;;;;;22.73;9.20;;;;;;;;;;10343737;28;20037;-48
2023/03/21 18:56:15;;;;;;;16.75;9.68;;;;;;;;;;10345235;28;20283;-53
2023/03/21 19:01:15;;;;;;;26.30;10.57;;;;;;;;;;10347980;28;20050;-48
2023/03/21 19:06:16;;;;;;;18.58;9.18;;;;;;;;;;10347239;28;20037;-50
2023/03/21 19:11:20;;;;;;;16.30;8.55;;;;;;;;;;10353058;28;20041;-48
2023/03/21 19:16:20;;;;;;;18.33;8.80;;;;;;;;;;10353029;28;20485;-49
2023/03/21 19:21:21;;;;;;;19.88;7.85;;;;;;;;;;10355506;28;20037;-48
2023/03/21 19:26:21;;;;;;;20.58;8.68;;;;;;;;;;10366328;28;20088;-47
2023/03/21 19:31:23;;;;;;;17.63;7.20;;;;;;;;;;10372504;28;20021;-48
2023/03/21 19:36:24;;;;;;;16.40;9.13;;;;;;;;;;10360279;28;20049;-48
2023/03/21 19:41:24;;;;;;;15.63;8.50;;;;;;;;;;10365566;28;20025;-50
2023/03/21 19:46:25;;;;;;;15.45;8.50;;;;;;;;;;10360696;28;20045;-49
2023/03/21 19:51:26;;;;;;;23.38;8.85;;;;;;;;;;10368879;28;20177;-48
2023/03/21 19:56:26;;;;;;;15.95;8.80;;;;;;;;;;10369993;28;20385;-49
2023/03/21 20:01:27;;;;;;;16.48;8.38;;;;;;;;;;10372322;28;20045;-48
2023/03/21 20:06:28;;;;;;;19.65;8.60;;;;;;;;;;10370104;28;20051;-48
2023/03/21 20:11:28;;;;;;;15.13;8.25;;;;;;;;;;10356954;28;20085;-50
2023/03/21 20:16:31;;;;;;;17.02;8.85;;;;;;;;;;10366337;28;20022;-49
2023/03/21 20:21:32;;;;;;;16.00;8.25;;;;;;;;;;10375077;28;20037;-50
2023/03/21 20:26:33;;;;;;;15.30;9.13;;;;;;;;;;10368905;28;20026;-50
2023/03/21 20:31:34;;;;;;;27.20;9.23;;;;;;;;;;10377878;28;20029;-49
2023/03/21 20:36:34;;;;;;;35.55;10.68;;;;;;;;;;10353566;28;20022;-50
2023/03/21 20:41:35;;;;;;;22.92;9.48;;;;;;;;;;10364636;28;20030;-48
2023/03/21 20:46:35;;;;;;;16.27;8.73;;;;;;;;;;10363878;28;20025;-51
2023/03/21 20:51:37;;;;;;;18.23;8.05;;;;;;;;;;10368103;28;20387;-48
2023/03/21 20:56:37;;;;;;;20.05;8.35;;;;;;;;;;10366637;28;20029;-48
2023/03/21 21:01:38;;;;;;;20.08;9.32;;;;;;;;;;10370968;28;20049;-48
2023/03/21 21:06:39;;;;;;;21.13;8.13;;;;;;;;;;10369502;28;20432;-49
2023/03/21 21:11:39;;;;;;;18.90;8.52;;;;;;;;;;10364209;28;20060;-55
2023/03/21 21:16:40;;;;;;;16.90;7.18;;;;;;;;;;10370239;28;20030;-51
2023/03/21 21:21:40;;;;;;;13.68;6.93;;;;;;;;;;10364328;28;20374;-49
2023/03/21 21:26:44;;;;;;;12.77;7.20;;;;;;;;;;10368184;28;20021;-56
2023/03/21 21:31:48;;;;;;;14.88;7.70;;;;;;;;;;10358288;28;20055;-50
2023/03/21 21:36:49;;;;;;;17.33;7.28;;;;;;;;;;10355420;28;20031;-49
2023/03/21 21:41:49;;;;;;;17.90;7.53;;;;;;;;;;10349294;28;20462;-50
2023/03/21 21:46:51;;;;;;;15.85;7.18;;;;;;;;;;10339993;28;20489;-51
2023/03/21 21:51:51;;;;;;;29.92;8.88;;;;;;;;;;10352032;28;20037;-48
2023/03/21 21:56:52;;;;;;;24.73;7.93;;;;;;;;;;10372933;28;20029;-49
2023/03/21 22:01:53;;;;;;;32.00;8.85;;;;;;;;;;10362803;28;20049;-54
2023/03/21 22:06:55;;;;;;;24.90;7.95;;;;;;;;;;10371136;28;20093;-49
2023/03/21 22:11:55;;;;;;;21.65;8.07;;;;;;;;;;10365502;28;20510;-48
2023/03/21 22:16:58;;;;;;;23.08;8.40;;;;;;;;;;10362321;28;20037;-48
2023/03/21 22:21:59;;;;;;;20.25;7.63;;;;;;;;;;10365829;28;20037;-48
2023/03/21 22:26:59;;;;;;;19.63;7.18;;;;;;;;;;10366188;28;20037;-48
2023/03/21 22:32:00;;;;;;;17.02;6.88;;;;;;;;;;10358732;28;20436;-49
2023/03/21 22:37:01;;;;;;;17.52;7.57;;;;;;;;;;10367984;28;20032;-48
2023/03/21 22:42:03;;;;;;;21.95;7.95;;;;;;;;;;10365350;28;20425;-51
2023/03/21 22:47:07;;;;;;;19.67;7.10;;;;;;;;;;10364795;28;20030;-52
2023/03/21 22:52:10;;;;;;;21.02;7.32;;;;;;;;;;10360679;28;20520;-47
2023/03/21 22:57:12;;;;;;;17.77;6.38;;;;;;;;;;10364240;28;20028;-50
2023/03/21 23:02:13;;;;;;;14.80;6.32;;;;;;;;;;10364614;28;20096;-60
2023/03/21 23:07:14;;;;;;;19.67;8.30;;;;;;;;;;10364632;28;20056;-57
2023/03/21 23:12:15;;;;;;;11.90;6.63;;;;;;;;;;10357512;28;20033;-50
2023/03/21 23:17:16;;;;;;;15.18;6.43;;;;;;;;;;10343565;28;20057;-53
2023/03/21 23:22:16;;;;;;;13.93;6.47;;;;;;;;;;10363870;28;20030;-51
2023/03/21 23:27:17;;;;;;;13.90;6.03;;;;;;;;;;10354194;28;20478;-51
2023/03/21 23:32:18;;;;;;;19.70;7.57;;;;;;;;;;10362913;28;20512;-51
2023/03/21 23:37:20;;;;;;;16.98;7.43;;;;;;;;;;10362479;28;20033;-50
2023/03/21 23:42:23;;;;;;;13.98;6.45;;;;;;;;;;10362705;28;20146;-51
2023/03/21 23:47:23;;;;;;;14.68;7.07;;;;;;;;;;10358698;28;20104;-50
2023/03/21 23:52:24;;;;;;;17.10;6.78;;;;;;;;;;10362961;28;20092;-49
2023/03/21 23:57:25;;;;;;;20.90;7.35;;;;;;;;;;10339083;28;20023;-49
